Sayabec, Canada
Current Conditions -  °F | °C
As of 2:00 PM on Tuesday 21 Oct 2014 (Local Time) from CYYY Reporting Station
Scattered Clouds Scattered Clouds  
Wind Chill: 41°   Ceiling: Unl
Heat Index: 45°   Visibility: 30mi
Dew Point: 32°   Wind: 6mph
Humidity: 61%   Direction: 270°W
Pressure: 30.14"   Gusts: NA
Location:  48.55°N, 67.68°W
Report Text: CYYY 211800Z 27005KT 240V310 30SM FEW035 FEW100 SCT220 07/M00 A3014 RMK SC1AC1CI3 SC TR SLP210
Loading
Personal Weather Stations






























Interactive Weather Map
Tropical Storm Tracking
New forecast layout! Learn more

10-Day Weather Forecast

Advertisements
Track Severe Weather on mobile